KGCC/GCC METAR and TAF weather

Enter ICAO airport designator
Station Type Date Time Source
KGCC METAR 2021/06/24 05:53 UTC NOAA

KGCC 240553Z AUTO 00000KT 10SM CLR 19/12 A3000 RMK AO2 SLP102 60002 T01890122 10328 20189 51018


Station Type Date Time Source
KGCC Decoded METAR 2021/06/24 05:53 UTC NOAA

GILLETTE-CAMPBELL CTY AIRPORT , WY, United States (KGCC) 44-20N 105-33W 1320M
Jun 24, 2021 - 01:53 AM EDT / 2021.06.24 0553 UTC
Wind: Calm:0
Visibility: 10 mile(s):0
Sky conditions: clear
Temperature: 66.0 F (18.9 C)
Dew Point: 54.0 F (12.2 C)
Relative Humidity: 65%
Pressure (altimeter): 30 in. Hg (1015 hPa)
Pressure tendency: 0.05 inches (1.8 hPa) higher than three hours ago
ob: KGCC 240553Z AUTO 00000KT 10SM CLR 19/12 A3000 RMK AO2 SLP102 60002 T01890122 10328 20189 51018
cycle: 6

Station Type Date Time Source
KGCC TAF 2021/06/24 06:22 UTC NOAA

TAF KGCC 240520Z 2406/2506 28011KT P6SM BKN150
FM242000 25006KT P6SM VCTS BKN100CB
FM242300 33008KT P6SM -SHRA OVC090

Example: see airport list